KM6VME Weather Reports


time (UTC)temp
F
wind
direction
speed
knots
gust
knots
rain 1hr
in
rain 24hr
in
rain mn
in
humidity
%
barometer
mb
20220627203652 76 341 3.5 5.2 0.00 0.00 0.00 70 1015.4
20220627203151 77 344 2.6 4.3 0.00 0.00 0.00 69 1015.7
20220627202650 77 19 1.7 1.7 0.00 0.00 0.00 70 1015.6
20220627202149 77 328 1.7 2.6 0.00 0.00 0.00 69 1015.5
20220627201647 77 330 2.6 4.3 0.00 0.00 0.00 69 1015.6
20220627201145 78 335 2.6 4.3 0.00 0.00 0.00 67 1015.7
20220627200644 77 75 0.9 1.7 0.00 0.00 0.00 70 1015.9
20220627200143 77 8 1.7 4.3 0.00 0.00 0.00 68 1015.7
20220627195642 78 331 1.7 1.7 0.00 0.00 0.00 68 1015.7
20220627195141 77 303 2.6 2.6 0.00 0.00 0.00 69 1015.9
20220627194640 77 325 2.6 2.6 0.00 0.00 0.00 68 1015.7
20220627194141 77 299 0.9 1.7 0.00 0.00 0.00 70 1015.8
20220627193640 76 328 1.7 2.6 0.00 0.00 0.00 71 1015.8
20220627193137 77 1 2.6 6.1 0.00 0.00 0.00 70 1015.8
20220627192635 77 351 1.7 2.6 0.00 0.00 0.00 70 1015.8
20220627192135 77 298 2.6 5.2 0.00 0.00 0.00 69 1016.0
20220627191633 77 348 1.7 2.6 0.00 0.00 0.00 68 1015.9
20220627191134 77 11 2.6 2.6 0.00 0.00 0.00 70 1016.0
20220627190633 77 350 1.7 1.7 0.00 0.00 0.00 69 1016.0
20220627190132 76 286 2.6 2.6 0.00 0.00 0.00 70 1016.0
20220627185631 76 244 0.9 1.7 0.00 0.00 0.00 70 1016.0
20220627185129 76 15 0.9 0.9 0.00 0.00 0.00 71 1015.9
20220627184628 76 11 0.9 1.7 0.00 0.00 0.00 70 1015.9
20220627184126 76 325 0.9 1.7 0.00 0.00 0.00 70 1016.0
20220627183624 76 341 2.6 2.6 0.00 0.00 0.00 69 1016.1
20220627183124 76 307 0.9 0.9 0.00 0.00 0.00 69 1016.1
20220627182623 76 344 1.7 1.7 0.00 0.00 0.00 69 1016.1
20220627182121 77 291 0.9 1.7 0.00 0.00 0.00 68 1016.2
20220627181621 77 183 0.9 1.7 0.00 0.00 0.00 68 1016.0
20220627181121 76 315 0.9 0.9 0.00 0.00 0.00 69 1016.1
20220627180620 76 2 1.7 1.7 0.00 0.00 0.00 70 1016.1
20220627180119 75 252 0.9 1.7 0.00 0.00 0.00 72 1016.4
20220627175619 75 343 0.9 0.9 0.00 0.00 0.00 72 1016.3
20220627175120 75 243 0.9 1.7 0.00 0.00 0.00 73 1016.0
20220627174618 76 348 2.6 2.6 0.00 0.00 0.00 71 1016.2
20220627174117 75 285 0.9 0.9 0.00 0.00 0.00 72 1016.4
20220627173615 75 300 0.9 1.7 0.00 0.00 0.00 71 1016.2
20220627173114 75 285 1.7 1.7 0.00 0.00 0.00 71 1016.3
20220627172614 75 344 2.6 4.3 0.00 0.00 0.00 72 1016.5
20220627172112 75 342 0.9 0.9 0.00 0.00 0.00 72 1016.2
20220627171612 74 304 0.0 0.9 0.00 0.00 0.00 74 1016.5
20220627171112 74 308 0.0 0.9 0.00 0.00 0.00 73 1016.3
20220627170611 74 301 0.0 0.9 0.00 0.00 0.00 75 1016.3
20220627170110 73 244 0.0 0.9 0.00 0.00 0.00 76 1016.3
20220627165610 74 354 2.6 2.6 0.00 0.00 0.00 74 1016.3
20220627165109 74 270 0.9 0.9 0.00 0.00 0.00 75 1016.5
20220627164608 73 288 0.0 0.9 0.00 0.00 0.00 76 1016.5
20220627164105 73 353 0.9 0.9 0.00 0.00 0.00 76 1016.6
20220627163603 73 293 0.9 0.9 0.00 0.00 0.00 76 1016.3
20220627163102 73 273 0.0 0.0 0.00 0.00 0.00 76 1016.5
20220627162601 73 262 0.9 1.7 0.00 0.00 0.00 77 1016.4
20220627162100 73 2 1.7 1.7 0.00 0.00 0.00 77 1016.5
20220627161600 73 321 1.7 1.7 0.00 0.00 0.00 77 1016.6
20220627161059 73 347 0.0 0.0 0.00 0.00 0.00 77 1016.5
20220627160559 73 251 0.9 0.9 0.00 0.00 0.00 77 1016.3
20220627160058 71 359 0.9 1.7 0.00 0.00 0.00 80 1016.3
20220627155557 71 356 0.9 0.9 0.00 0.00 0.00 79 1016.5
20220627155055 71 244 0.0 0.0 0.00 0.00 0.00 82 1016.3
20220627154555 71 227 0.0 0.0 0.00 0.00 0.00 81 1016.5
20220627154054 70 313 0.9 1.7 0.00 0.00 0.00 81 1016.5
20220627153552 69 194 0.0 0.0 0.00 0.00 0.00 86 1016.2
20220627153052 68 209 0.0 0.9 0.00 0.00 0.00 87 1016.3
20220627152552 68 311 0.0 0.0 0.00 0.00 0.00 89 1016.4
20220627152051 67 348 0.9 1.7 0.00 0.00 0.00 90 1016.2
20220627151550 66 342 0.9 1.7 0.00 0.00 0.00 90 1016.5
20220627151049 65 290 0.0 0.0 0.00 0.00 0.00 94 1016.6
20220627150549 65 351 0.0 0.9 0.00 0.00 0.00 95 1016.4
20220627150049 64 326 0.0 0.0 0.00 0.00 0.00 96 1016.4
20220627145548 64 328 0.9 0.9 0.00 0.00 0.00 97 1016.3
20220627145047 64 311 0.9 0.9 0.00 0.00 0.00 98 1016.3
20220627144546 63 290 0.0 0.9 0.00 0.00 0.00 99 1016.1
20220627144045 63 303 0.0 0.9 0.00 0.00 0.00 99 1016.3
20220627143545 63 297 0.0 0.0 0.00 0.00 0.00 99 1016.4
20220627143044 63 336 0.0 0.0 0.00 0.00 0.00 99 1016.1
20220627142542 63 294 0.0 0.0 0.00 0.00 0.00 99 1016.1
20220627142042 62 274 0.0 0.0 0.00 0.00 0.00 99 1016.1
20220627141542 62 290 0.0 0.0 0.00 0.00 0.00 99 1016.2
20220627141040 62 244 0.0 0.9 0.00 0.00 0.00 99 1015.9
20220627140539 62 291 0.0 0.0 0.00 0.00 0.00 99 1016.2
20220627140040 62 290 0.0 0.0 0.00 0.00 0.00 99 1016.0
20220627135538 62 265 0.0 0.0 0.00 0.00 0.00 99 1016.0
20220627135037 62 287 0.0 0.0 0.00 0.00 0.00 99 1016.2
20220627134536 62 322 0.9 0.9 0.00 0.00 0.00 99 1016.2
20220627134034 61 259 0.0 0.0 0.00 0.00 0.00 99 1016.4
20220627133534 61 164 0.0 0.0 0.00 0.00 0.00 99 1016.3
20220627133033 61 261 0.0 0.0 0.00 0.00 0.00 99 1016.2
20220627132533 61 253 0.0 0.0 0.00 0.00 0.00 99 1016.2
20220627132031 61 276 0.9 0.9 0.00 0.00 0.00 99 1016.1
20220627131530 61 277 0.0 0.0 0.00 0.00 0.00 99 1016.3
20220627131029 61 264 0.0 0.0 0.00 0.00 0.00 99 1016.4
20220627130528 61 240 0.0 0.0 0.00 0.00 0.00 99 1016.1
20220627130027 61 220 0.0 0.0 0.00 0.00 0.00 99 1016.4
20220627125526 60 243 0.0 0.0 0.00 0.00 0.00 99 1016.2
20220627125025 60 258 0.0 0.0 0.00 0.00 0.00 99 1016.3
20220627124524 60 224 0.0 0.0 0.00 0.00 0.00 99 1016.4
20220627124023 61 260 0.0 0.0 0.00 0.00 0.00 99 1015.9
20220627123521 61 284 0.0 0.0 0.00 0.00 0.00 99 1015.9
20220627123021 61 257 0.0 0.0 0.00 0.00 0.00 99 1016.0
20220627122519 60 221 0.0 0.0 0.00 0.00 0.00 99 1016.1
20220627122018 60 212 0.0 0.0 0.00 0.00 0.00 99 1016.2
20220627121517 60 229 0.0 0.0 0.00 0.00 0.00 99 1016.3
20220627121016 60 258 0.0 0.0 0.00 0.00 0.00 99 1016.0
20220627120515 60 249 0.0 0.0 0.00 0.00 0.00 99 1015.9
20220627120014 60 248 0.0 0.0 0.00 0.00 0.00 99 1016.1
20220627115513 60 273 0.0 0.9 0.00 0.00 0.00 99 1015.9
20220627115012 60 257 0.0 0.0 0.00 0.00 0.00 99 1015.9
20220627114511 60 257 0.0 0.0 0.00 0.00 0.00 99 1015.9
20220627114009 59 258 0.0 0.0 0.00 0.00 0.00 99 1015.8
20220627113509 59 245 0.0 0.0 0.00 0.00 0.00 99 1016.1
20220627113008 59 215 0.0 0.0 0.00 0.00 0.00 99 1016.1
20220627112507 59 213 0.0 0.0 0.00 0.00 0.00 99 1016.0
20220627112007 60 213 0.0 0.0 0.00 0.00 0.00 99 1016.0
20220627111506 60 226 0.0 0.0 0.00 0.00 0.00 98 1015.9
20220627111004 60 226 0.0 0.0 0.00 0.00 0.00 98 1016.0
20220627110504 60 235 0.0 0.0 0.00 0.00 0.00 98 1016.2
20220627110003 60 266 0.0 0.0 0.00 0.00 0.00 99 1015.9
20220627105502 60 241 0.0 0.0 0.00 0.00 0.00 99 1016.1
20220627105001 60 303 0.0 0.0 0.00 0.00 0.00 99 1016.0
20220627104500 60 258 0.0 0.0 0.00 0.00 0.00 99 1015.8
20220627103959 59 227 0.0 0.0 0.00 0.00 0.00 99 1016.3
20220627103457 59 211 0.0 0.0 0.00 0.00 0.00 99 1016.4
20220627102958 59 197 0.0 0.0 0.00 0.00 0.00 99 1016.5
20220627102456 60 195 0.0 0.0 0.00 0.00 0.00 99 1016.5
20220627101955 60 198 0.0 0.0 0.00 0.00 0.00 99 1016.6
20220627101454 60 222 0.0 0.0 0.00 0.00 0.00 99 1016.3
20220627100954 60 222 0.0 0.0 0.00 0.00 0.00 99 1016.5
20220627100453 60 233 0.0 0.0 0.00 0.00 0.00 99 1016.4
20220627095953 60 243 0.0 0.0 0.00 0.00 0.00 99 1016.5
20220627095451 60 243 0.0 0.0 0.00 0.00 0.00 99 1016.5
20220627094951 60 242 0.0 0.0 0.00 0.00 0.00 99 1016.6
20220627094450 60 242 0.0 0.0 0.00 0.00 0.00 99 1016.7
20220627093949 61 307 0.0 0.0 0.00 0.00 0.00 99 1016.5
20220627093448 60 265 0.0 0.0 0.00 0.00 0.00 99 1016.4
20220627092948 60 240 0.0 0.0 0.00 0.00 0.00 99 1016.0
20220627092446 60 240 0.0 0.0 0.00 0.00 0.00 98 1016.2
20220627091945 60 240 0.0 0.0 0.00 0.00 0.00 98 1016.3
20220627091443 60 246 0.0 0.0 0.00 0.00 0.00 98 1016.5
20220627090943 60 234 0.0 0.0 0.00 0.00 0.00 98 1016.4
20220627090442 61 236 0.0 0.0 0.00 0.00 0.00 98 1016.4
20220627085942 61 218 0.0 0.0 0.00 0.00 0.00 98 1016.3
20220627085441 61 218 0.0 0.0 0.00 0.00 0.00 98 1016.2
20220627084940 61 211 0.0 0.0 0.00 0.00 0.00 98 1016.6
20220627084439 61 224 0.0 0.0 0.00 0.00 0.00 98 1016.5
20220627083938 61 222 0.0 0.0 0.00 0.00 0.00 98 1016.4
20220627083437 62 183 0.0 0.0 0.00 0.00 0.00 98 1016.6
20220627082937 62 146 0.0 0.0 0.00 0.00 0.00 98 1016.5
20220627082436 62 161 0.0 0.0 0.00 0.00 0.00 98 1016.6
20220627081934 62 298 0.0 0.0 0.00 0.00 0.00 98 1016.5
20220627081433 62 321 0.0 0.0 0.00 0.00 0.00 99 1016.7
20220627080932 61 212 0.0 0.0 0.00 0.00 0.00 99 1016.5
20220627080432 61 211 0.0 0.0 0.00 0.00 0.00 98 1016.7
20220627075930 61 212 0.0 0.0 0.00 0.00 0.00 99 1016.5
20220627075430 61 212 0.0 0.0 0.00 0.00 0.00 99 1016.5
20220627074929 61 211 0.0 0.0 0.00 0.00 0.00 99 1017.0
20220627074427 61 211 0.0 0.0 0.00 0.00 0.00 99 1016.9
20220627073925 61 212 0.0 0.0 0.00 0.00 0.00 99 1016.8
20220627073424 61 212 0.0 0.0 0.00 0.00 0.00 98 1016.8
20220627072924 61 212 0.0 0.0 0.00 0.00 0.00 98 1016.8
20220627072422 61 212 0.0 0.0 0.00 0.00 0.00 98 1016.8
20220627071921 62 212 0.0 0.0 0.00 0.00 0.00 98 1016.8
20220627071420 62 212 0.0 0.0 0.00 0.00 0.00 98 1016.8
20220627070919 62 212 0.0 0.0 0.00 0.00 0.00 98 1016.8
20220627070418 62 212 0.0 0.0 0.00 0.00 0.00 98 1016.5
20220627065917 62 212 0.0 0.0 0.00 0.05 0.05 98 1016.5
20220627065417 62 212 0.0 0.0 0.00 0.05 0.05 98 1016.7
20220627064916 62 211 0.0 0.0 0.00 0.05 0.05 98 1016.7
20220627064415 62 213 0.0 0.0 0.00 0.05 0.05 98 1016.6
20220627063915 62 213 0.0 0.0 0.00 0.05 0.05 98 1016.7
20220627063413 62 215 0.0 0.0 0.00 0.05 0.05 98 1016.7
20220627062913 62 215 0.0 0.0 0.00 0.05 0.05 98 1016.7
20220627062412 62 223 0.0 0.0 0.00 0.05 0.05 98 1016.5
20220627061911 62 223 0.0 0.0 0.00 0.05 0.05 98 1016.7
20220627061410 62 223 0.0 0.0 0.00 0.05 0.05 98 1016.8
20220627060909 62 228 0.0 0.0 0.00 0.05 0.05 97 1016.7
20220627060407 63 258 0.0 0.0 0.00 0.05 0.05 97 1016.8
20220627055906 63 285 0.0 0.0 0.00 0.05 0.05 96 1016.7
20220627055405 63 312 0.0 0.0 0.00 0.05 0.05 97 1016.8
20220627054904 63 309 0.0 0.0 0.00 0.05 0.05 96 1016.6
20220627054403 63 309 0.0 0.0 0.00 0.05 0.05 96 1016.6
20220627053902 63 303 0.0 0.0 0.00 0.05 0.05 96 1016.7
20220627053401 64 301 0.0 0.0 0.00 0.05 0.05 96 1016.8
20220627052900 63 300 0.0 0.0 0.00 0.05 0.05 96 1016.4
20220627052359 64 298 0.0 0.0 0.00 0.05 0.05 96 1016.5
20220627051857 64 300 0.0 0.0 0.00 0.05 0.05 96 1016.3
20220627051355 64 339 0.0 0.0 0.00 0.05 0.05 96 1016.3
20220627050856 64 321 0.0 0.0 0.00 0.05 0.05 95 1016.7
20220627050354 64 335 0.9 0.9 0.00 0.05 0.05 95 1016.1
20220627045853 64 330 0.0 0.0 0.00 0.05 0.05 95 1016.3
20220627045352 64 344 0.0 0.0 0.00 0.05 0.05 95 1016.2
20220627044851 64 213 0.0 0.0 0.00 0.05 0.05 95 1016.0
20220627044350 64 316 0.0 0.0 0.00 0.05 0.05 95 1016.0
20220627043848 64 319 0.0 0.0 0.00 0.05 0.05 95 1016.1
20220627043347 65 358 0.9 1.7 0.00 0.05 0.05 94 1015.8
20220627042846 65 333 0.0 0.0 0.00 0.05 0.05 94 1015.9
20220627042345 65 329 0.9 0.9 0.00 0.05 0.05 94 1015.7
20220627041844 65 350 0.9 0.9 0.00 0.05 0.05 93 1015.4
20220627041343 65 328 1.7 4.3 0.00 0.05 0.05 92 1015.5
20220627040842 66 344 0.9 0.9 0.00 0.05 0.05 91 1015.3
20220627040340 66 328 0.0 0.9 0.00 0.05 0.05 90 1015.2
20220627035840 66 357 0.0 0.9 0.00 0.05 0.05 89 1015.3
20220627035339 66 350 0.0 0.0 0.00 0.05 0.05 88 1015.0
20220627034838 66 222 0.0 0.0 0.00 0.05 0.05 86 1014.9
20220627034337 67 227 0.0 0.9 0.00 0.05 0.05 85 1014.9
20220627033836 67 247 0.0 0.0 0.00 0.05 0.05 83 1014.9
20220627033337 67 210 0.0 0.0 0.00 0.05 0.05 82 1015.1
20220627032836 67 342 0.9 0.9 0.00 0.05 0.05 81 1014.8
20220627032336 67 344 0.0 0.9 0.00 0.05 0.05 80 1014.6
20220627031836 68 304 0.0 0.9 0.00 0.05 0.05 79 1014.5
20220627031335 68 354 0.9 0.9 0.00 0.05 0.05 77 1014.6
20220627030834 68 322 0.9 0.9 0.00 0.05 0.05 76 1014.6
20220627030333 69 316 0.9 1.7 0.00 0.05 0.05 74 1014.5
20220627025833 69 294 0.9 1.7 0.00 0.05 0.05 73 1014.6
20220627025332 69 334 0.9 1.7 0.00 0.05 0.05 72 1014.6
20220627024830 70 261 0.9 1.7 0.00 0.05 0.05 69 1014.4
20220627024330 70 347 0.0 0.9 0.00 0.05 0.05 67 1014.3
20220627023830 70 208 0.0 0.9 0.00 0.05 0.05 68 1014.3
20220627023328 70 282 0.0 0.9 0.00 0.05 0.05 68 1014.2
20220627022827 71 8 0.0 0.9 0.00 0.05 0.05 67 1014.1
20220627022327 72 19 1.7 2.6 0.00 0.05 0.05 65 1014.2
20220627021826 72 336 1.7 1.7 0.00 0.05 0.05 62 1014.0
20220627021324 72 11 0.9 1.7 0.00 0.05 0.05 63 1013.8
20220627020824 73 5 1.7 2.6 0.00 0.05 0.05 62 1013.7
20220627020323 73 167 0.0 0.0 0.23 0.05 0.05 63 1014.0
20220627015822 74 167 0.0 0.0 0.23 0.05 0.05 62 1013.6
20220627015323 74 37 0.0 0.0 0.11 0.02 0.02 63 1013.8
20220627014822 74 32 0.0 0.0 0.11 0.02 0.02 64 1013.8
20220627014321 74 259 0.0 0.9 0.00 0.00 0.00 64 1013.6
20220627013820 74 54 2.6 2.6 0.00 0.00 0.00 64 1013.7
20220627013319 74 333 0.9 0.9 0.00 0.00 0.00 65 1013.8
20220627012818 74 293 0.9 1.7 0.00 0.00 0.00 66 1013.7
20220627012317 74 9 0.9 1.7 0.00 0.00 0.00 66 1013.7
20220627011816 74 21 2.6 4.3 0.00 0.00 0.00 67 1013.5
20220627011315 73 5 1.7 1.7 0.00 0.00 0.00 70 1013.5
20220627010814 73 303 0.9 0.9 0.00 0.00 0.00 74 1013.4
20220627010312 73 264 0.9 1.7 0.00 0.00 0.00 76 1013.6
20220627005811 73 278 1.7 1.7 0.00 0.00 0.00 76 1013.5
20220627005311 73 57 0.9 0.9 0.00 0.00 0.00 76 1013.6
20220627004810 73 12 0.9 1.7 0.00 0.00 0.00 76 1013.6
20220627004309 74 21 2.6 4.3 0.00 0.00 0.00 74 1013.3
20220627003808 75 14 0.9 2.6 0.00 0.00 0.00 71 1013.4
20220627003307 75 282 1.7 2.6 0.00 0.00 0.00 70 1013.5
20220627002807 75 35 1.7 1.7 0.00 0.00 0.00 71 1013.5
20220627002306 76 284 0.9 1.7 0.00 0.00 0.00 71 1013.2
20220627001806 76 14 2.6 2.6 0.00 0.00 0.00 70 1013.3
20220627001305 75 327 2.6 5.2 0.00 0.00 0.00 70 1013.3
20220627000804 75 346 2.6 2.6 0.00 0.00 0.00 70 1013.4
20220627000305 75 352 2.6 2.6 0.00 0.00 0.00 69 1013.4
20220626235804 76 308 4.3 5.2 0.00 0.00 0.00 67 1013.4
20220626235304 76 326 1.7 1.7 0.00 0.00 0.00 67 1013.5
20220626234803 76 45 1.7 1.7 0.00 0.00 0.00 66 1013.4
20220626234302 77 17 0.9 1.7 0.00 0.00 0.00 65 1013.4
20220626233801 76 346 2.6 2.6 0.00 0.00 0.00 67 1013.4
20220626233300 75 245 1.7 2.6 0.00 0.00 0.00 69 1013.8
20220626232759 76 21 2.6 4.3 0.00 0.00 0.00 70 1013.6
20220626232258 75 8 1.7 5.2 0.00 0.00 0.00 70 1013.7
20220626231757 75 2 1.7 2.6 0.00 0.00 0.00 70 1013.8
20220626231256 75 280 0.9 0.9 0.00 0.00 0.00 70 1013.7
20220626230755 76 239 2.6 2.6 0.00 0.00 0.00 70 1013.6
20220626230254 75 345 2.6 2.6 0.00 0.00 0.00 71 1013.6
20220626225753 76 50 4.3 5.2 0.00 0.00 0.00 70 1013.6
20220626225253 76 2 2.6 4.3 0.00 0.00 0.00 70 1013.6
20220626224751 77 14 1.7 2.6 0.00 0.00 0.00 69 1013.6
20220626224250 77 51 1.7 1.7 0.00 0.00 0.00 69 1013.7
20220626223749 77 351 1.7 1.7 0.00 0.00 0.00 69 1013.9
20220626223247 76 36 2.6 4.3 0.00 0.00 0.00 69 1013.8
20220626222747 76 352 0.9 0.9 0.00 0.00 0.00 70 1014.1
20220626222246 75 294 2.6 5.2 0.00 0.00 0.00 71 1014.0
20220626221742 76 68 1.7 1.7 0.00 0.00 0.00 71 1014.0
20220626221242 75 305 1.7 2.6 0.00 0.00 0.00 69 1014.3
20220626220740 76 7 2.6 4.3 0.00 0.00 0.00 68 1013.9
20220626220239 77 352 2.6 2.6 0.00 0.00 0.00 68 1014.2
20220626215738 76 359 0.9 1.7 0.00 0.00 0.00 70 1014.3
20220626215236 76 11 5.2 7.0 0.00 0.00 0.00 69 1014.3
20220626214736 77 19 3.5 7.0 0.00 0.00 0.00 68 1014.2
20220626214235 77 339 2.6 2.6 0.00 0.00 0.00 67 1014.2
20220626213735 78 175 1.7 2.6 0.00 0.00 0.00 67 1014.5
20220626213234 77 14 3.5 5.2 0.00 0.00 0.00 66 1014.4
20220626212733 76 347 4.3 4.3 0.00 0.00 0.00 67 1014.4
20220626212234 76 356 2.6 4.3 0.00 0.00 0.00 67 1014.6
20220626211733 77 205 2.6 4.3 0.00 0.00 0.00 66 1014.5
20220626211233 77 209 2.6 2.6 0.00 0.00 0.00 66 1014.6
20220626210732 76 321 1.7 2.6 0.00 0.00 0.00 68 1014.7
20220626210230 76 12 2.6 2.6 0.00 0.00 0.00 68 1014.9
20220626205729 77 297 3.5 5.2 0.00 0.00 0.00 66 1014.7
20220626205227 77 314 1.7 1.7 0.00 0.00 0.00 65 1014.8
20220626204727 77 346 1.7 2.6 0.00 0.00 0.00 66 1014.9
20220626204226 77 339 1.7 1.7 0.00 0.00 0.00 66 1014.6